Wasco, California
Current Conditions -  °F | °C
As of 6:54 AM on Tuesday 21 Oct 2014 (Local Time) from KBFL Reporting Station
Overcast Overcast  
Wind Chill: 59°   Ceiling: 4100
Heat Index: 59°   Visibility: 10mi
Dew Point: 48°   Wind: 5mph
Humidity: 67%   Direction: 340°NNW
Pressure: 30.05"   Gusts: NA
Location:  35.59°N, 119.33°W
Report Text: KBFL 211354Z 34004KT 10SM BKN041 OVC050 15/09 A3005 RMK AO2 SLP171 T01500089
Loading
Personal Weather Stations






























Interactive Weather Map
Tropical Storm Tracking
New forecast layout! Learn more

10-Day Weather Forecast

Advertisements
Track Severe Weather on mobile